createdAt,value
2019-03-10T00:01:39.952Z,99075.55
2019-03-10T00:04:09.972Z,99083.16
2019-03-10T00:06:39.896Z,99077.36
2019-03-10T00:09:11.566Z,99068.02
2019-03-10T00:11:41.682Z,99074.36
2019-03-10T00:14:11.733Z,99058.84
2019-03-10T00:16:41.820Z,99053.44
2019-03-10T00:19:12.014Z,99046.02
2019-03-10T00:21:42.339Z,99034.93
2019-03-10T00:24:12.345Z,99042.61
2019-03-10T00:26:42.614Z,99023.48
2019-03-10T00:29:12.078Z,99013.84
2019-03-10T00:31:42.505Z,99002.40
2019-03-10T00:34:12.734Z,98994.24
2019-03-10T00:36:43.324Z,98994.24
2019-03-10T00:40:19.541Z,99000.33
2019-03-10T00:44:32.329Z,99007.59
2019-03-10T00:48:23.376Z,99017.56
2019-03-10T00:52:06.980Z,99006.30
2019-03-10T00:54:37.070Z,98994.89
2019-03-10T00:57:07.693Z,98984.77
2019-03-10T00:59:38.003Z,98973.64
2019-03-10T01:02:08.229Z,98973.55
2019-03-10T01:04:38.343Z,98961.75
2019-03-10T01:07:08.777Z,98968.10
2019-03-10T01:09:39.004Z,98969.93
2019-03-10T01:12:09.965Z,98972.23
2019-03-10T01:14:40.363Z,98965.75
2019-03-10T01:17:11.320Z,98950.80
2019-03-10T01:19:41.776Z,98938.05
2019-03-10T01:22:11.864Z,98935.32
2019-03-10T01:24:42.219Z,98929.86
2019-03-10T01:27:12.321Z,98922.56
2019-03-10T01:29:42.531Z,98921.89
2019-03-10T01:32:53.688Z,98903.36
2019-03-10T01:35:36.512Z,98903.36
2019-03-10T01:38:06.833Z,98917.87
2019-03-10T01:40:36.797Z,98899.05
2019-03-10T01:43:06.881Z,98898.09
2019-03-10T01:45:36.724Z,98892.67
2019-03-10T01:48:06.588Z,98882.13
2019-03-10T01:50:36.705Z,98869.61
2019-03-10T01:53:06.362Z,98869.61
2019-03-10T01:55:36.953Z,98878.25
2019-03-10T01:58:06.907Z,98865.55
2019-03-10T02:00:36.729Z,98862.34
2019-03-10T02:03:07.058Z,98849.73
2019-03-10T02:05:36.948Z,98847.37
2019-03-10T02:08:06.840Z,98842.40
2019-03-10T02:10:36.972Z,98827.41
2019-03-10T02:13:07.126Z,98813.50
2019-03-10T02:15:37.371Z,98798.11
2019-03-10T02:18:07.529Z,98781.37
2019-03-10T02:20:38.566Z,98789.93
2019-03-10T02:23:07.655Z,98789.93
2019-03-10T02:25:37.344Z,98791.20
2019-03-10T02:28:07.495Z,98784.00
2019-03-10T02:30:37.480Z,98759.37
2019-03-10T02:33:07.901Z,98756.56
2019-03-10T02:35:37.946Z,98756.56
2019-03-10T02:38:07.877Z,98746.67
2019-03-10T02:40:37.955Z,98741.02
2019-03-10T02:43:07.911Z,98744.73
2019-03-10T02:45:37.961Z,98729.44
2019-03-10T02:48:08.187Z,98730.14
2019-03-10T02:50:38.318Z,98723.95
2019-03-10T02:53:08.712Z,98723.28
2019-03-10T02:55:38.598Z,98713.63
2019-03-10T02:58:07.634Z,98706.04
2019-03-10T03:00:37.706Z,98706.04
2019-03-10T03:03:07.496Z,98693.97
2019-03-10T03:05:37.520Z,98680.25
2019-03-10T03:08:07.680Z,98680.25
2019-03-10T03:10:36.947Z,98672.80
2019-03-10T03:13:06.850Z,98664.09
2019-03-10T03:15:36.844Z,98658.39
2019-03-10T03:18:06.804Z,98649.48
2019-03-10T03:20:36.689Z,98644.05
2019-03-10T03:23:06.699Z,98649.71
2019-03-10T03:25:35.619Z,98658.46
2019-03-10T03:28:04.743Z,98658.19
2019-03-10T03:30:34.642Z,98662.14
2019-03-10T03:33:03.686Z,98650.91
2019-03-10T03:36:00.141Z,98656.27
2019-03-10T03:38:58.098Z,98652.41
2019-03-10T03:41:28.320Z,98627.44
2019-03-10T03:43:58.866Z,98631.01
2019-03-10T03:46:28.725Z,98630.25
2019-03-10T03:48:59.366Z,98618.64
2019-03-10T03:51:29.643Z,98610.22
2019-03-10T03:53:58.765Z,98599.33
2019-03-10T03:56:29.788Z,98594.16
2019-03-10T03:59:00.892Z,98595.84
2019-03-10T04:01:34.742Z,98584.45
2019-03-10T04:04:04.509Z,98583.63
2019-03-10T04:06:34.659Z,98566.50
2019-03-10T04:09:06.018Z,98566.50
2019-03-10T04:11:36.561Z,98556.38
2019-03-10T04:14:06.948Z,98553.67
2019-03-10T04:16:36.604Z,98546.67
2019-03-10T04:19:06.278Z,98547.51
2019-03-10T04:21:35.881Z,98533.05
2019-03-10T04:24:05.595Z,98536.67
2019-03-10T04:26:35.348Z,98529.75
2019-03-10T04:29:05.559Z,98518.23
2019-03-10T04:31:35.172Z,98510.60
2019-03-10T04:34:08.032Z,98510.60
2019-03-10T04:36:37.892Z,98497.63
2019-03-10T04:39:08.773Z,98490.33
2019-03-10T04:41:38.705Z,98485.30
2019-03-10T04:44:08.692Z,98484.09
2019-03-10T04:46:39.514Z,98480.03
2019-03-10T04:49:10.571Z,98469.76
2019-03-10T04:51:39.800Z,98457.86
2019-03-10T04:54:09.663Z,98459.26
2019-03-10T04:56:51.415Z,98451.25
2019-03-10T04:59:20.851Z,98434.23
2019-03-10T05:01:50.522Z,98429.51
2019-03-10T05:04:20.317Z,98401.78
2019-03-10T05:06:52.819Z,98401.78
2019-03-10T05:09:22.540Z,98401.02
2019-03-10T05:11:51.525Z,98398.61
2019-03-10T05:14:21.318Z,98405.02
2019-03-10T05:16:50.889Z,98405.02
2019-03-10T05:19:20.813Z,98374.60
2019-03-10T05:21:50.586Z,98363.16
2019-03-10T05:24:19.732Z,98369.09
2019-03-10T05:26:49.334Z,98372.56
2019-03-10T05:29:19.320Z,98337.50
2019-03-10T05:31:49.115Z,98337.77
2019-03-10T05:34:19.068Z,98334.44
2019-03-10T05:36:49.433Z,98337.66
2019-03-10T05:39:19.548Z,98325.76
2019-03-10T05:41:48.572Z,98312.73
2019-03-10T05:44:17.606Z,98305.06
2019-03-10T05:46:46.791Z,98296.06
2019-03-10T05:49:16.502Z,98299.30
2019-03-10T05:51:46.572Z,98283.41
2019-03-10T05:54:16.593Z,98260.25
2019-03-10T05:56:45.806Z,98260.25
2019-03-10T05:59:15.502Z,98266.45
2019-03-10T06:01:45.335Z,98257.98
2019-03-10T06:04:15.520Z,98248.72
2019-03-10T06:06:44.932Z,98243.97
2019-03-10T06:09:14.838Z,98246.52
2019-03-10T06:11:44.679Z,98247.22
2019-03-10T06:14:13.816Z,98238.74
2019-03-10T06:16:43.746Z,98237.56
2019-03-10T06:19:13.755Z,98244.84
2019-03-10T06:21:43.558Z,98252.41
2019-03-10T06:24:13.727Z,98241.41
2019-03-10T06:26:43.565Z,98241.41
2019-03-10T06:29:12.712Z,98246.06
2019-03-10T06:31:42.668Z,98246.06
2019-03-10T06:34:12.901Z,98237.62
2019-03-10T06:36:42.867Z,98234.14
2019-03-10T06:39:12.733Z,98224.69
2019-03-10T06:41:41.792Z,98220.71
2019-03-10T06:44:12.431Z,98218.40
2019-03-10T06:46:42.818Z,98207.16
2019-03-10T06:49:13.314Z,98207.16
2019-03-10T06:51:43.635Z,98193.16
2019-03-10T06:54:13.290Z,98193.16
2019-03-10T06:56:43.546Z,98195.36
2019-03-10T06:59:13.699Z,98183.77
2019-03-10T07:01:42.828Z,98184.38
2019-03-10T07:04:13.618Z,98182.86
2019-03-10T07:06:43.678Z,98187.80
2019-03-10T07:09:13.900Z,98186.36
2019-03-10T07:11:43.669Z,98176.53
2019-03-10T07:14:13.589Z,98175.90
2019-03-10T07:16:43.280Z,98180.16
2019-03-10T07:19:13.677Z,98171.52
2019-03-10T07:21:43.318Z,98170.58
2019-03-10T07:24:13.584Z,98164.79
2019-03-10T07:26:43.275Z,98164.79
2019-03-10T07:29:21.583Z,98166.06
2019-03-10T07:32:09.428Z,98164.47
2019-03-10T07:34:54.642Z,98161.47
2019-03-10T07:37:37.940Z,98161.47
2019-03-10T07:40:33.894Z,98159.90
2019-03-10T07:43:16.333Z,98164.97
2019-03-10T07:46:10.304Z,98160.48
2019-03-10T07:48:59.819Z,98170.41
2019-03-10T07:51:49.127Z,98177.55
2019-03-10T07:54:36.913Z,98170.78
2019-03-10T07:57:25.662Z,98168.55
2019-03-10T08:00:12.720Z,98167.57
2019-03-10T08:03:05.185Z,98151.50
2019-03-10T08:05:54.591Z,98162.76
2019-03-10T08:08:52.557Z,98160.19
2019-03-10T08:11:29.065Z,98155.20
2019-03-10T08:14:33.765Z,98161.14
2019-03-10T08:17:38.701Z,98168.10
2019-03-10T08:20:26.483Z,98174.22
2019-03-10T08:23:14.929Z,98168.67
2019-03-10T08:26:20.028Z,98168.67
2019-03-10T08:29:12.624Z,98169.86
2019-03-10T08:32:02.004Z,98168.78
2019-03-10T08:34:40.144Z,98184.17
2019-03-10T08:37:42.600Z,98179.41
2019-03-10T08:40:27.765Z,98179.42
2019-03-10T08:43:08.579Z,98179.42
2019-03-10T08:45:53.816Z,98173.92
2019-03-10T08:48:34.097Z,98173.92
2019-03-10T08:51:39.914Z,98161.98
2019-03-10T08:54:15.672Z,98164.39
2019-03-10T08:57:08.863Z,98165.94
2019-03-10T09:00:07.545Z,98171.52
2019-03-10T09:02:52.560Z,98159.59
2019-03-10T09:05:41.122Z,98153.95
2019-03-10T09:08:30.902Z,98154.27
2019-03-10T09:11:19.468Z,98156.83
2019-03-10T09:14:01.597Z,98156.54
2019-03-10T09:16:48.306Z,98156.54
2019-03-10T09:19:36.874Z,98157.53
2019-03-10T09:22:16.868Z,98147.42
2019-03-10T09:24:57.487Z,98155.72
2019-03-10T09:28:02.531Z,98148.55
2019-03-10T09:30:51.305Z,98148.55
2019-03-10T09:33:39.544Z,98147.41
2019-03-10T09:36:36.120Z,98143.86
2019-03-10T09:39:27.512Z,98138.04
2019-03-10T09:42:32.660Z,98126.34
2019-03-10T09:45:19.037Z,98126.34
2019-03-10T09:48:01.040Z,98124.38
2019-03-10T09:50:44.909Z,98134.12
2019-03-10T09:53:44.695Z,98138.59
2019-03-10T09:56:37.272Z,98131.91
2019-03-10T09:59:13.164Z,98133.02
2019-03-10T10:02:02.303Z,98130.52
2019-03-10T10:04:58.655Z,98136.63
2019-03-10T10:07:42.025Z,98131.34
2019-03-10T10:10:48.320Z,98146.08
2019-03-10T10:13:44.540Z,98139.41
2019-03-10T10:16:39.974Z,98131.59
2019-03-10T10:19:29.058Z,98117.12
2019-03-10T10:23:49.640Z,98121.30
2019-03-10T10:27:24.256Z,98114.20
2019-03-10T10:31:14.737Z,98114.20
2019-03-10T10:40:20.059Z,98105.20
2019-03-10T10:46:28.355Z,98129.02
2019-03-10T10:49:16.632Z,98100.39
2019-03-10T10:52:09.651Z,98100.39
2019-03-10T10:55:00.011Z,98100.03
2019-03-10T10:57:50.556Z,98100.09
2019-03-10T11:00:31.587Z,98092.91
2019-03-10T11:03:24.513Z,98096.91
2019-03-10T11:06:19.703Z,98096.38
2019-03-10T11:09:08.339Z,98096.38
2019-03-10T11:12:11.589Z,98092.95
2019-03-10T11:15:06.591Z,98098.22
2019-03-10T11:17:46.128Z,98098.22
2019-03-10T11:20:33.746Z,98103.13
2019-03-10T11:23:22.977Z,98092.86
2019-03-10T11:26:11.954Z,98084.57
2019-03-10T11:28:53.587Z,98070.86
2019-03-10T11:31:43.320Z,98070.20
2019-03-10T11:34:23.598Z,98074.69
2019-03-10T11:37:29.254Z,98074.69
2019-03-10T11:40:29.822Z,98069.58
2019-03-10T11:43:19.829Z,98052.31
2019-03-10T11:46:48.520Z,98052.13
2019-03-10T11:49:29.546Z,98032.19
2019-03-10T11:52:19.745Z,98035.55
2019-03-10T11:55:06.690Z,98053.92
2019-03-10T11:57:56.797Z,98026.70
2019-03-10T12:00:42.685Z,98020.64
2019-03-10T12:03:38.203Z,98020.15
2019-03-10T12:06:30.685Z,98033.25
2019-03-10T12:09:18.289Z,98033.25
2019-03-10T12:11:48.316Z,98018.28
2019-03-10T12:14:19.107Z,98039.38
2019-03-10T12:16:49.927Z,98017.58
2019-03-10T12:19:20.569Z,98019.13
2019-03-10T12:21:50.866Z,98030.81
2019-03-10T12:24:30.392Z,98019.95
2019-03-10T12:27:02.567Z,97995.20
2019-03-10T12:29:32.516Z,97996.13
2019-03-10T12:32:02.667Z,98017.03
2019-03-10T12:34:32.792Z,98017.03
2019-03-10T12:37:02.705Z,97981.03
2019-03-10T12:39:32.517Z,97998.84
2019-03-10T12:42:02.443Z,97999.53
2019-03-10T12:44:32.661Z,97989.00
2019-03-10T12:47:02.746Z,97989.00
2019-03-10T12:49:32.895Z,97988.16
2019-03-10T12:52:02.738Z,98000.96
2019-03-10T12:54:33.781Z,98016.84
2019-03-10T12:57:03.562Z,97974.28
2019-03-10T12:59:33.466Z,98002.89
2019-03-10T13:02:03.998Z,97993.23
2019-03-10T13:04:34.130Z,97993.23
2019-03-10T13:07:11.837Z,97984.25
2019-03-10T13:09:44.519Z,97988.55
2019-03-10T13:12:20.057Z,97996.52
2019-03-10T13:15:02.090Z,97996.52
2019-03-10T13:17:37.336Z,98031.77
2019-03-10T13:20:10.589Z,98047.94
2019-03-10T13:22:40.268Z,98006.45
2019-03-10T13:25:10.339Z,98032.80
2019-03-10T13:27:40.813Z,98023.41
2019-03-10T13:30:13.888Z,98014.06
2019-03-10T13:32:44.793Z,98037.86
2019-03-10T13:35:15.811Z,98039.33
2019-03-10T13:37:45.990Z,98053.66
2019-03-10T13:40:16.454Z,98059.88
2019-03-10T13:42:46.540Z,98057.73
2019-03-10T13:45:16.139Z,98057.73
2019-03-10T13:47:47.126Z,98070.92
2019-03-10T13:50:17.890Z,98080.44
2019-03-10T13:52:48.578Z,98057.48
2019-03-10T13:55:18.035Z,98091.50
2019-03-10T13:57:48.854Z,98084.66
2019-03-10T14:00:22.675Z,98068.11
2019-03-10T14:02:52.040Z,98083.70
2019-03-10T14:05:22.454Z,98047.30
2019-03-10T14:07:52.585Z,98075.27
2019-03-10T14:10:21.747Z,98114.86
2019-03-10T14:12:52.779Z,98096.69
2019-03-10T14:15:22.910Z,98090.47
2019-03-10T14:17:53.334Z,98089.89
2019-03-10T14:20:23.315Z,98105.41
2019-03-10T14:22:53.520Z,98096.42
2019-03-10T14:25:23.746Z,98102.72
2019-03-10T14:27:54.757Z,98102.72
2019-03-10T14:30:24.866Z,98105.95
2019-03-10T14:32:55.811Z,98113.93
2019-03-10T14:35:25.825Z,98125.72
2019-03-10T14:37:55.889Z,98106.52
2019-03-10T14:40:26.569Z,98119.70
2019-03-10T14:42:55.869Z,98123.38
2019-03-10T14:45:25.706Z,98127.23
2019-03-10T14:47:56.324Z,98110.72
2019-03-10T14:50:27.381Z,98119.93
2019-03-10T14:52:58.244Z,98133.53
2019-03-10T14:55:29.588Z,98133.53
2019-03-10T14:58:01.010Z,98127.16
2019-03-10T15:00:31.103Z,98138.75
2019-03-10T15:03:01.326Z,98141.73
2019-03-10T15:05:31.650Z,98158.41
2019-03-10T15:08:01.559Z,98165.92
2019-03-10T15:10:31.612Z,98191.27
2019-03-10T15:13:01.034Z,98204.88
2019-03-10T15:15:30.988Z,98212.39
2019-03-10T15:18:03.044Z,98208.42
2019-03-10T15:20:34.639Z,98202.13
2019-03-10T15:23:03.971Z,98200.80
2019-03-10T15:25:34.135Z,98222.41
2019-03-10T15:28:04.354Z,98234.84
2019-03-10T15:30:34.229Z,98237.88
2019-03-10T15:33:04.139Z,98234.27
2019-03-10T15:35:34.357Z,98215.44
2019-03-10T15:38:04.170Z,98252.55
2019-03-10T15:40:34.072Z,98246.21
2019-03-10T15:43:03.909Z,98276.15
2019-03-10T15:45:34.929Z,98289.58
2019-03-10T15:48:05.414Z,98300.45
2019-03-10T15:50:35.682Z,98357.80
2019-03-10T15:53:05.014Z,98360.36
2019-03-10T15:55:37.682Z,98360.36
2019-03-10T15:58:09.704Z,98347.70
2019-03-10T16:00:40.660Z,98348.30
2019-03-10T16:03:11.373Z,98347.53
2019-03-10T16:05:42.698Z,98344.77
2019-03-10T16:08:13.185Z,98344.77
2019-03-10T16:10:45.136Z,98357.91
2019-03-10T16:13:15.615Z,98363.20
2019-03-10T16:15:44.965Z,98373.54
2019-03-10T16:18:16.370Z,98351.97
2019-03-10T16:20:47.428Z,98351.97
2019-03-10T16:23:18.513Z,98379.80
2019-03-10T16:25:47.884Z,98394.54
2019-03-10T16:28:17.900Z,98400.23
2019-03-10T16:30:48.357Z,98414.95
2019-03-10T16:33:18.618Z,98412.79
2019-03-10T16:35:48.754Z,98417.79
2019-03-10T16:38:18.985Z,98442.37
2019-03-10T16:40:49.313Z,98430.86
2019-03-10T16:43:19.325Z,98422.52
2019-03-10T16:45:49.529Z,98438.58
2019-03-10T16:48:19.285Z,98459.81
2019-03-10T16:50:49.484Z,98466.34
2019-03-10T16:53:20.615Z,98455.24
2019-03-10T16:56:02.091Z,98455.24
2019-03-10T16:58:24.009Z,98470.69
2019-03-10T17:00:53.591Z,98480.59
2019-03-10T17:03:25.556Z,98491.95
2019-03-10T17:05:56.068Z,98491.42
2019-03-10T17:08:26.560Z,98491.14
2019-03-10T17:10:56.282Z,98515.50
2019-03-10T17:13:26.576Z,98515.50
2019-03-10T17:15:56.717Z,98510.39
2019-03-10T17:18:29.804Z,98520.94
2019-03-10T17:21:00.866Z,98528.70
2019-03-10T17:23:31.544Z,98548.72
2019-03-10T17:26:03.127Z,98550.88
2019-03-10T17:28:33.990Z,98568.41
2019-03-10T17:31:05.322Z,98574.22
2019-03-10T17:33:36.122Z,98555.47
2019-03-10T17:36:07.031Z,98547.88
2019-03-10T17:38:38.679Z,98580.65
2019-03-10T17:41:09.326Z,98565.81
2019-03-10T17:43:40.316Z,98563.89
2019-03-10T17:46:11.473Z,98578.84
2019-03-10T17:48:42.938Z,98569.13
2019-03-10T17:51:14.537Z,98554.01
2019-03-10T17:53:46.475Z,98570.88
2019-03-10T17:56:19.963Z,98559.81
2019-03-10T17:58:50.958Z,98559.81
2019-03-10T18:01:22.010Z,98575.77
2019-03-10T18:03:52.758Z,98573.75
2019-03-10T18:06:23.319Z,98575.31
2019-03-10T18:08:54.978Z,98569.25
2019-03-10T18:11:27.138Z,98569.25
2019-03-10T18:13:57.553Z,98559.47
2019-03-10T18:16:26.692Z,98584.37
2019-03-10T18:18:56.471Z,98599.73
2019-03-10T18:21:27.535Z,98619.48
2019-03-10T18:23:57.895Z,98633.02
2019-03-10T18:26:30.034Z,98633.02
2019-03-10T18:29:01.614Z,98654.28
2019-03-10T18:31:32.316Z,98676.01
2019-03-10T18:34:03.406Z,98675.32
2019-03-10T18:36:34.383Z,98662.14
2019-03-10T18:40:03.567Z,98669.38
2019-03-10T18:43:24.965Z,98659.17
2019-03-10T18:47:03.185Z,98690.29
2019-03-10T18:51:27.038Z,98703.11
2019-03-10T18:54:30.491Z,98712.34
2019-03-10T18:57:54.272Z,98730.47
2019-03-10T19:01:43.771Z,98787.27
2019-03-10T19:05:42.658Z,98787.27
2019-03-10T19:09:42.890Z,98802.12
2019-03-10T19:13:08.242Z,98827.87
2019-03-10T19:16:43.248Z,98854.95
2019-03-10T19:23:37.647Z,98870.39
2019-03-10T19:27:17.727Z,98858.06
2019-03-10T19:30:52.343Z,98858.06
2019-03-10T19:39:01.147Z,98857.09
2019-03-10T19:41:57.188Z,98864.45
2019-03-10T19:45:04.215Z,98864.45
2019-03-10T19:48:50.947Z,98880.87
2019-03-10T19:56:18.937Z,98873.84
2019-03-10T19:59:15.537Z,98865.73
2019-03-10T20:03:32.493Z,98904.98
2019-03-10T20:12:00.745Z,98892.81
2019-03-10T20:19:45.966Z,98922.72
2019-03-10T20:23:32.023Z,98944.48
2019-03-10T20:37:52.177Z,98980.02
2019-03-10T20:42:30.754Z,98987.53
2019-03-10T20:46:43.647Z,98982.64
2019-03-10T20:50:08.747Z,98985.17
2019-03-10T20:54:06.276Z,98985.17
2019-03-10T20:57:28.221Z,99012.87
2019-03-10T21:09:08.411Z,99032.12
2019-03-10T21:13:13.673Z,99032.12
2019-03-10T21:15:44.651Z,99035.80
2019-03-10T21:18:13.937Z,99010.83
2019-03-10T21:20:45.749Z,99041.41
2019-03-10T21:23:16.725Z,99027.95
2019-03-10T21:25:48.261Z,99038.64
2019-03-10T21:28:18.733Z,99042.88
2019-03-10T21:30:49.575Z,99041.91
2019-03-10T21:33:20.018Z,99054.93
2019-03-10T21:35:51.120Z,99071.83
2019-03-10T21:38:22.052Z,99076.06
2019-03-10T21:40:54.075Z,99089.56
2019-03-10T21:43:25.699Z,99100.34
2019-03-10T21:45:56.285Z,99085.97
2019-03-10T21:48:26.695Z,99094.53
2019-03-10T21:50:56.706Z,99091.08
2019-03-10T21:53:26.744Z,99106.32
2019-03-10T21:55:58.980Z,99101.62
2019-03-10T21:58:29.597Z,99100.11
2019-03-10T22:00:58.518Z,99121.34
2019-03-10T22:03:30.351Z,99117.07
2019-03-10T22:06:01.966Z,99134.95
2019-03-10T22:08:33.350Z,99134.95
2019-03-10T22:11:05.000Z,99134.70
2019-03-10T22:13:46.108Z,99123.42
2019-03-10T22:16:08.173Z,99122.03
2019-03-10T22:18:38.868Z,99133.05
2019-03-10T22:21:09.138Z,99129.33
2019-03-10T22:23:39.946Z,99135.64
2019-03-10T22:26:09.865Z,99132.09
2019-03-10T22:28:40.939Z,99127.28
2019-03-10T22:31:11.787Z,99128.73
2019-03-10T22:33:41.633Z,99132.38
2019-03-10T22:36:12.353Z,99136.08
2019-03-10T22:38:42.889Z,99139.36
2019-03-10T22:41:13.345Z,99143.83
2019-03-10T22:43:43.572Z,99151.33
2019-03-10T22:46:12.886Z,99148.41
2019-03-10T22:48:43.578Z,99147.28
2019-03-10T22:51:13.522Z,99167.02
2019-03-10T22:53:43.161Z,99154.61
2019-03-10T22:56:13.134Z,99154.61
2019-03-10T22:58:43.712Z,99165.98
2019-03-10T23:01:14.169Z,99157.34
2019-03-10T23:03:44.627Z,99166.71
2019-03-10T23:06:14.282Z,99166.71
2019-03-10T23:08:44.467Z,99169.34
2019-03-10T23:11:16.147Z,99178.31
2019-03-10T23:13:46.219Z,99178.31
2019-03-10T23:16:19.320Z,99186.80
2019-03-10T23:18:49.552Z,99182.62
2019-03-10T23:21:19.595Z,99189.61
2019-03-10T23:23:49.981Z,99189.61
2019-03-10T23:26:20.146Z,99177.13
2019-03-10T23:28:51.328Z,99180.45
2019-03-10T23:31:21.428Z,99196.46
2019-03-10T23:33:52.432Z,99206.24
2019-03-10T23:36:22.314Z,99212.06
2019-03-10T23:38:52.838Z,99212.06
2019-03-10T23:41:23.894Z,99208.06
2019-03-10T23:43:54.471Z,99208.91
2019-03-10T23:46:26.324Z,99217.74
2019-03-10T23:48:57.317Z,99217.74
2019-03-10T23:51:27.843Z,99223.16
2019-03-10T23:53:58.485Z,99227.92
2019-03-10T23:56:28.077Z,99243.72
2019-03-10T23:58:57.698Z,99222.59
